createdAt,value
2023-09-06T00:02:28.450Z,1.70
2023-09-06T00:05:14.232Z,1.90
2023-09-06T00:07:59.734Z,1.70
2023-09-06T00:10:45.695Z,1.55
2023-09-06T00:13:32.181Z,1.77
2023-09-06T00:16:17.566Z,1.60
2023-09-06T00:19:03.372Z,1.70
2023-09-06T00:21:48.852Z,1.88
2023-09-06T00:24:34.912Z,1.80
2023-09-06T00:27:20.258Z,1.63
2023-09-06T00:30:06.412Z,1.70
2023-09-06T00:32:52.433Z,1.92
2023-09-06T00:35:39.453Z,1.90
2023-09-06T00:38:25.060Z,1.77
2023-09-06T00:41:11.327Z,2.00
2023-09-06T00:43:56.598Z,2.00
2023-09-06T00:46:43.436Z,1.98
2023-09-06T00:49:28.922Z,1.80
2023-09-06T00:52:15.011Z,1.90
2023-09-06T00:55:01.016Z,1.90
2023-09-06T00:57:46.907Z,1.88
2023-09-06T01:00:32.122Z,1.90
2023-09-06T01:03:18.866Z,1.80
2023-09-06T01:06:33.261Z,1.80
2023-09-06T01:09:19.309Z,1.60
2023-09-06T01:12:04.669Z,1.80
2023-09-06T01:14:50.030Z,1.73
2023-09-06T01:17:37.495Z,1.75
2023-09-06T01:20:32.172Z,1.85
2023-09-06T01:23:29.743Z,1.70
2023-09-06T01:26:17.473Z,1.70
2023-09-06T01:29:03.565Z,1.92
2023-09-06T01:31:48.839Z,2.00
2023-09-06T01:34:34.251Z,2.00
2023-09-06T01:37:19.690Z,2.13
2023-09-06T01:40:08.905Z,2.17
2023-09-06T01:42:54.376Z,1.92
2023-09-06T01:45:44.474Z,2.30
2023-09-06T01:48:29.945Z,1.73
2023-09-06T01:51:15.516Z,1.90
2023-09-06T01:54:00.794Z,2.15
2023-09-06T01:56:46.588Z,1.88
2023-09-06T01:59:32.544Z,1.70
2023-09-06T02:02:17.988Z,1.90
2023-09-06T02:05:03.040Z,1.73
2023-09-06T02:07:48.588Z,1.67
2023-09-06T02:10:34.207Z,1.70
2023-09-06T02:13:19.786Z,1.90
2023-09-06T02:16:05.351Z,2.05
2023-09-06T02:18:50.943Z,2.10
2023-09-06T02:21:36.390Z,1.90
2023-09-06T02:24:22.315Z,1.95
2023-09-06T02:27:07.509Z,1.80
2023-09-06T02:29:53.101Z,1.90
2023-09-06T02:32:38.551Z,2.00
2023-09-06T02:35:24.031Z,1.80
2023-09-06T02:38:10.766Z,1.95
2023-09-06T02:40:56.094Z,1.80
2023-09-06T02:43:41.537Z,2.00
2023-09-06T02:46:26.901Z,1.90
2023-09-06T02:49:12.397Z,1.90
2023-09-06T02:51:58.017Z,2.10
2023-09-06T02:54:43.395Z,2.20
2023-09-06T02:57:29.130Z,2.15
2023-09-06T03:00:14.667Z,2.10
2023-09-06T03:03:01.153Z,1.83
2023-09-06T03:05:47.201Z,2.05
2023-09-06T03:08:36.030Z,2.20
2023-09-06T03:11:21.393Z,2.33
2023-09-06T03:14:07.655Z,1.90
2023-09-06T03:16:53.291Z,2.00
2023-09-06T03:19:39.396Z,2.30
2023-09-06T03:22:24.747Z,2.22
2023-09-06T03:25:10.855Z,2.05
2023-09-06T03:27:57.016Z,2.13
2023-09-06T03:30:43.385Z,2.17
2023-09-06T03:33:29.617Z,1.90
2023-09-06T03:36:16.153Z,2.20
2023-09-06T03:39:02.259Z,1.95
2023-09-06T03:41:47.818Z,1.83
2023-09-06T03:44:33.230Z,2.10
2023-09-06T03:47:18.723Z,2.30
2023-09-06T03:50:04.251Z,2.25
2023-09-06T03:52:49.471Z,2.10
2023-09-06T03:55:37.485Z,2.03
2023-09-06T03:58:25.228Z,2.28
2023-09-06T04:01:11.644Z,2.00
2023-09-06T04:03:57.271Z,2.20
2023-09-06T04:06:42.518Z,2.10
2023-09-06T04:09:28.993Z,2.28
2023-09-06T04:12:14.201Z,2.10
2023-09-06T04:14:59.959Z,1.90
2023-09-06T04:17:45.798Z,2.30
2023-09-06T04:20:34.107Z,2.20
2023-09-06T04:23:21.017Z,2.10
2023-09-06T04:26:12.954Z,2.13
2023-09-06T04:28:58.204Z,2.10
2023-09-06T04:31:43.747Z,2.25
2023-09-06T04:34:30.746Z,2.10
2023-09-06T04:37:16.111Z,2.08
2023-09-06T04:40:01.756Z,2.00
2023-09-06T04:42:50.140Z,1.65
2023-09-06T04:45:36.878Z,1.90
2023-09-06T04:48:22.920Z,1.70
2023-09-06T04:51:13.142Z,1.65
2023-09-06T04:53:59.197Z,1.88
2023-09-06T04:56:52.422Z,1.80
2023-09-06T04:59:37.983Z,2.00
2023-09-06T05:02:23.489Z,1.90
2023-09-06T05:05:09.070Z,1.95
2023-09-06T05:07:54.620Z,2.17
2023-09-06T05:10:41.089Z,1.80
2023-09-06T05:13:27.753Z,2.15
2023-09-06T05:16:17.273Z,1.90
2023-09-06T05:19:02.841Z,1.98
2023-09-06T05:21:53.388Z,1.98
2023-09-06T05:24:41.018Z,1.70
2023-09-06T05:27:26.636Z,1.90
2023-09-06T05:30:12.534Z,2.03
2023-09-06T05:32:58.871Z,1.90
2023-09-06T05:35:45.178Z,1.98
2023-09-06T05:38:33.040Z,2.17
2023-09-06T05:41:20.856Z,1.88
2023-09-06T05:44:06.833Z,1.98
2023-09-06T05:46:52.438Z,1.83
2023-09-06T05:49:38.448Z,1.67
2023-09-06T05:52:23.800Z,1.90
2023-09-06T05:55:09.948Z,1.85
2023-09-06T05:57:55.759Z,1.80
2023-09-06T06:00:42.458Z,2.17
2023-09-06T06:03:27.702Z,2.10
2023-09-06T06:06:13.144Z,2.20
2023-09-06T06:08:58.586Z,1.90
2023-09-06T06:11:44.045Z,2.30
2023-09-06T06:14:29.386Z,2.50
2023-09-06T06:17:15.153Z,2.53
2023-09-06T06:20:00.705Z,2.80
2023-09-06T06:22:46.197Z,2.22
2023-09-06T06:25:31.714Z,2.60
2023-09-06T06:28:17.546Z,2.40
2023-09-06T06:31:02.799Z,2.65
2023-09-06T06:33:48.099Z,2.50
2023-09-06T06:36:33.591Z,2.80
2023-09-06T06:39:19.123Z,2.97
2023-09-06T06:42:04.716Z,3.00
2023-09-06T06:44:52.971Z,3.08
2023-09-06T06:47:38.724Z,3.17
2023-09-06T06:50:24.758Z,3.33
2023-09-06T06:53:10.002Z,3.22
2023-09-06T06:55:55.709Z,3.25
2023-09-06T06:58:41.127Z,3.15
2023-09-06T07:01:26.855Z,3.13
2023-09-06T07:04:12.433Z,3.10
2023-09-06T07:06:57.747Z,3.50
2023-09-06T07:09:43.048Z,3.53
2023-09-06T07:12:28.304Z,3.47
2023-09-06T07:15:13.973Z,3.42
2023-09-06T07:17:59.576Z,3.40
2023-09-06T07:20:45.105Z,3.50
2023-09-06T07:23:30.848Z,3.38
2023-09-06T07:26:16.348Z,3.42
2023-09-06T07:29:01.956Z,3.60
2023-09-06T07:31:47.289Z,3.75
2023-09-06T07:34:32.830Z,3.25
2023-09-06T07:37:18.212Z,3.25
2023-09-06T07:40:04.048Z,3.60
2023-09-06T07:42:49.312Z,3.80
2023-09-06T07:45:35.177Z,3.60
2023-09-06T07:48:21.059Z,3.70
2023-09-06T07:51:07.024Z,3.50
2023-09-06T07:53:52.548Z,3.15
2023-09-06T07:56:40.511Z,3.40
2023-09-06T07:59:26.309Z,3.40
2023-09-06T08:02:11.738Z,3.60
2023-09-06T08:04:57.265Z,3.55
2023-09-06T08:07:42.877Z,3.63
2023-09-06T08:10:28.286Z,3.47
2023-09-06T08:13:13.980Z,3.67
2023-09-06T08:15:59.184Z,3.80
2023-09-06T08:18:44.927Z,3.70
2023-09-06T08:21:30.866Z,3.80
2023-09-06T08:24:16.278Z,3.70
2023-09-06T08:27:01.894Z,3.90
2023-09-06T08:29:47.457Z,3.97
2023-09-06T08:32:33.063Z,3.90
2023-09-06T08:35:19.026Z,3.53
2023-09-06T08:38:05.222Z,3.20
2023-09-06T08:40:50.606Z,3.47
2023-09-06T08:43:37.435Z,3.25
2023-09-06T08:46:30.937Z,3.65
2023-09-06T08:49:16.814Z,3.33
2023-09-06T08:52:03.106Z,3.25
2023-09-06T08:54:48.733Z,3.22
2023-09-06T08:57:35.527Z,3.05
2023-09-06T09:00:20.764Z,3.05
2023-09-06T09:03:06.917Z,3.00
2023-09-06T09:05:58.307Z,2.90
2023-09-06T09:08:44.022Z,2.88
2023-09-06T09:11:29.776Z,2.80
2023-09-06T09:14:24.104Z,2.65
2023-09-06T09:17:09.420Z,2.70
2023-09-06T09:19:57.027Z,2.60
2023-09-06T09:22:42.308Z,2.38
2023-09-06T09:25:27.961Z,2.60
2023-09-06T09:28:15.838Z,2.35
2023-09-06T09:31:02.319Z,2.50
2023-09-06T09:33:52.181Z,2.50
2023-09-06T09:36:39.346Z,2.10
2023-09-06T09:39:28.135Z,2.47
2023-09-06T09:42:13.745Z,2.47
2023-09-06T09:45:02.984Z,2.50
2023-09-06T09:50:39.167Z,2.67
2023-09-06T09:53:27.228Z,2.53
2023-09-06T09:56:12.413Z,2.30
2023-09-06T09:59:00.639Z,2.47
2023-09-06T10:01:45.877Z,2.42
2023-09-06T10:04:35.916Z,2.42
2023-09-06T10:07:29.716Z,2.45
2023-09-06T10:10:25.433Z,2.35
2023-09-06T10:13:10.963Z,2.47
2023-09-06T10:15:57.285Z,2.50
2023-09-06T10:18:43.303Z,2.20
2023-09-06T10:21:28.937Z,2.22
2023-09-06T10:24:23.455Z,2.75
2023-09-06T10:27:12.540Z,2.17
2023-09-06T10:30:04.627Z,2.60
2023-09-06T10:32:50.932Z,2.60
2023-09-06T10:35:43.150Z,2.55
2023-09-06T10:38:29.084Z,2.90
2023-09-06T10:41:14.474Z,2.50
2023-09-06T10:44:00.229Z,2.92
2023-09-06T10:46:45.679Z,2.70
2023-09-06T10:49:32.912Z,2.80
2023-09-06T10:52:42.001Z,2.83
2023-09-06T10:55:28.459Z,2.53
2023-09-06T10:58:13.743Z,2.45
2023-09-06T11:01:14.759Z,2.50
2023-09-06T11:04:02.664Z,2.58
2023-09-06T11:06:54.254Z,2.50
2023-09-06T11:09:47.104Z,2.33
2023-09-06T11:12:32.636Z,2.35
2023-09-06T11:15:18.062Z,2.40
2023-09-06T11:18:04.151Z,2.38
2023-09-06T11:20:50.958Z,2.20
2023-09-06T11:23:51.339Z,2.08
2023-09-06T11:26:36.632Z,2.22
2023-09-06T11:29:27.569Z,2.40
2023-09-06T11:32:13.231Z,2.00
2023-09-06T11:34:58.528Z,2.22
2023-09-06T11:37:49.594Z,2.17
2023-09-06T11:40:36.409Z,2.40
2023-09-06T11:43:22.024Z,2.13
2023-09-06T11:46:08.839Z,2.30
2023-09-06T11:48:54.634Z,2.10
2023-09-06T11:51:40.382Z,2.25
2023-09-06T11:54:25.704Z,2.28
2023-09-06T11:57:18.670Z,2.25
2023-09-06T12:00:09.414Z,2.20
2023-09-06T12:03:00.934Z,3.35
2023-09-06T12:05:51.649Z,2.17
2023-09-06T12:08:37.895Z,2.10
2023-09-06T12:11:23.348Z,2.15
2023-09-06T12:14:13.693Z,2.20
2023-09-06T12:16:59.485Z,2.33
2023-09-06T12:19:44.737Z,2.25
2023-09-06T12:22:29.986Z,2.45
2023-09-06T12:25:16.295Z,2.50
2023-09-06T12:28:01.603Z,2.22
2023-09-06T12:30:47.278Z,2.40
2023-09-06T12:33:32.638Z,2.20
2023-09-06T12:36:19.002Z,2.40
2023-09-06T12:39:04.564Z,2.10
2023-09-06T12:41:49.909Z,2.28
2023-09-06T12:44:35.478Z,2.40
2023-09-06T12:47:21.068Z,2.20
2023-09-06T12:50:07.889Z,2.17
2023-09-06T12:52:53.921Z,2.30
2023-09-06T12:55:39.079Z,2.63
2023-09-06T12:58:24.894Z,2.40
2023-09-06T13:01:10.278Z,2.35
2023-09-06T13:03:56.021Z,2.17
2023-09-06T13:06:41.421Z,2.50
2023-09-06T13:09:27.052Z,2.03
2023-09-06T13:12:12.555Z,2.13
2023-09-06T13:14:59.072Z,2.10
2023-09-06T13:17:44.899Z,2.20
2023-09-06T13:20:30.368Z,2.25
2023-09-06T13:23:16.205Z,2.40
2023-09-06T13:26:01.925Z,2.10
2023-09-06T13:28:47.187Z,2.40
2023-09-06T13:31:33.286Z,2.50
2023-09-06T13:34:18.987Z,2.45
2023-09-06T13:37:05.153Z,2.33
2023-09-06T13:39:50.401Z,2.40
2023-09-06T13:42:36.037Z,2.55
2023-09-06T13:45:21.734Z,2.40
2023-09-06T13:48:07.442Z,2.30
2023-09-06T13:50:52.484Z,2.47
2023-09-06T13:53:38.303Z,2.35
2023-09-06T13:56:23.545Z,2.30
2023-09-06T13:59:08.875Z,2.00
2023-09-06T14:01:54.561Z,2.05
2023-09-06T14:04:39.761Z,2.20
2023-09-06T14:07:25.059Z,2.20
2023-09-06T14:10:11.016Z,2.75
2023-09-06T14:12:56.405Z,2.20
2023-09-06T14:15:41.922Z,2.15
2023-09-06T14:18:27.908Z,2.25
2023-09-06T14:21:13.619Z,2.20
2023-09-06T14:23:59.102Z,2.30
2023-09-06T14:26:45.006Z,2.20
2023-09-06T14:29:32.156Z,2.30
2023-09-06T14:32:17.785Z,2.05
2023-09-06T14:35:03.652Z,2.20
2023-09-06T14:37:49.004Z,2.22
2023-09-06T14:40:45.007Z,2.10
2023-09-06T14:43:30.818Z,2.22
2023-09-06T14:46:16.747Z,2.20
2023-09-06T14:49:02.111Z,2.20
2023-09-06T14:51:47.675Z,2.35
2023-09-06T14:54:33.055Z,2.20
2023-09-06T14:57:18.338Z,2.28
2023-09-06T15:00:04.069Z,2.35
2023-09-06T15:02:50.631Z,2.40
2023-09-06T15:05:36.400Z,2.30
2023-09-06T15:08:21.879Z,2.30
2023-09-06T15:11:10.582Z,2.30
2023-09-06T15:13:56.146Z,2.30
2023-09-06T15:16:41.930Z,3.05
2023-09-06T15:19:27.060Z,2.90
2023-09-06T15:22:17.361Z,2.47
2023-09-06T15:25:12.490Z,5.00
2023-09-06T15:27:58.008Z,2.42
2023-09-06T15:30:44.612Z,2.08
2023-09-06T15:33:30.326Z,1.98
2023-09-06T15:36:15.808Z,2.20
2023-09-06T15:39:01.475Z,2.20
2023-09-06T15:41:46.589Z,2.05
2023-09-06T15:44:32.122Z,2.00
2023-09-06T15:47:17.626Z,1.90
2023-09-06T15:50:03.407Z,2.10
2023-09-06T15:52:49.731Z,2.28
2023-09-06T15:55:34.986Z,2.10
2023-09-06T15:58:20.611Z,2.00
2023-09-06T16:01:06.113Z,2.15
2023-09-06T16:03:51.908Z,2.90
2023-09-06T16:06:37.512Z,3.50
2023-09-06T16:09:23.010Z,3.00
2023-09-06T16:12:08.984Z,1.92
2023-09-06T16:14:54.861Z,1.90
2023-09-06T16:17:40.507Z,2.00
2023-09-06T16:20:26.076Z,2.83
2023-09-06T16:23:12.008Z,2.25
2023-09-06T16:25:57.483Z,2.30
2023-09-06T16:28:43.076Z,2.05
2023-09-06T16:31:29.842Z,2.15
2023-09-06T16:34:15.285Z,2.20
2023-09-06T16:37:00.746Z,2.08
2023-09-06T16:39:46.539Z,2.28
2023-09-06T16:42:32.108Z,2.03
2023-09-06T16:45:18.313Z,2.30
2023-09-06T16:48:04.653Z,2.33
2023-09-06T16:50:50.214Z,2.28
2023-09-06T16:53:35.788Z,2.40
2023-09-06T16:56:21.504Z,2.28
2023-09-06T16:59:06.816Z,2.40
2023-09-06T17:01:52.752Z,2.22
2023-09-06T17:04:38.070Z,2.33
2023-09-06T17:07:23.621Z,2.13
2023-09-06T17:10:09.807Z,2.10
2023-09-06T17:12:55.468Z,2.60
2023-09-06T17:15:41.284Z,2.10
2023-09-06T17:18:26.502Z,2.20
2023-09-06T17:21:12.084Z,2.53
2023-09-06T17:24:03.930Z,2.38
2023-09-06T17:26:49.727Z,2.40
2023-09-06T17:29:35.287Z,2.25
2023-09-06T17:32:20.606Z,2.50
2023-09-06T17:35:07.034Z,2.50
2023-09-06T17:37:52.334Z,2.47
2023-09-06T17:40:45.385Z,2.47
2023-09-06T17:43:51.045Z,2.10
2023-09-06T17:46:36.905Z,2.17
2023-09-06T17:49:22.540Z,2.60
2023-09-06T17:52:08.666Z,2.70
2023-09-06T17:54:54.256Z,2.40
2023-09-06T17:57:39.905Z,2.17
2023-09-06T18:00:27.732Z,2.40
2023-09-06T18:03:13.899Z,2.30
2023-09-06T18:05:59.592Z,2.88
2023-09-06T18:08:45.126Z,2.38
2023-09-06T18:11:30.419Z,2.50
2023-09-06T18:14:18.091Z,2.70
2023-09-06T18:17:03.703Z,3.03
2023-09-06T18:19:49.104Z,2.60
2023-09-06T18:22:34.760Z,2.90
2023-09-06T18:25:20.376Z,2.67
2023-09-06T18:28:06.547Z,2.70
2023-09-06T18:30:52.269Z,2.60
2023-09-06T18:33:38.413Z,3.00
2023-09-06T18:36:23.861Z,2.70
2023-09-06T18:39:09.235Z,2.78
2023-09-06T18:41:54.806Z,2.83
2023-09-06T18:44:40.139Z,2.50
2023-09-06T18:47:25.931Z,2.97
2023-09-06T18:50:15.072Z,2.80
2023-09-06T18:53:02.236Z,2.60
2023-09-06T18:55:48.252Z,2.70
2023-09-06T18:58:33.964Z,3.03
2023-09-06T19:01:19.428Z,2.78
2023-09-06T19:04:05.294Z,2.70
2023-09-06T19:06:50.974Z,2.90
2023-09-06T19:09:36.608Z,2.75
2023-09-06T19:12:22.312Z,2.95
2023-09-06T19:15:12.970Z,3.00
2023-09-06T19:17:58.766Z,2.60
2023-09-06T19:20:44.715Z,2.80
2023-09-06T19:23:30.375Z,2.92
2023-09-06T19:26:15.922Z,2.90
2023-09-06T19:29:01.213Z,2.92
2023-09-06T19:31:46.762Z,3.15
2023-09-06T19:34:32.234Z,2.80
2023-09-06T19:37:18.251Z,2.92
2023-09-06T19:40:04.655Z,3.03
2023-09-06T19:42:50.062Z,2.95
2023-09-06T19:45:44.043Z,2.70
2023-09-06T19:48:29.813Z,3.10
2023-09-06T19:51:15.402Z,3.15
2023-09-06T19:54:00.877Z,3.08
2023-09-06T19:56:46.286Z,3.10
2023-09-06T19:59:32.564Z,2.80
2023-09-06T20:02:18.185Z,3.20
2023-09-06T20:05:04.061Z,3.00
2023-09-06T20:07:49.397Z,3.03
2023-09-06T20:10:40.892Z,3.10
2023-09-06T20:13:26.221Z,3.28
2023-09-06T20:16:11.795Z,3.47
2023-09-06T20:18:57.719Z,3.63
2023-09-06T20:21:42.954Z,3.22
2023-09-06T20:24:28.256Z,3.40
2023-09-06T20:27:14.627Z,3.67
2023-09-06T20:30:00.814Z,3.58
2023-09-06T20:32:46.379Z,3.42
2023-09-06T20:35:31.642Z,3.35
2023-09-06T20:38:17.344Z,3.30
2023-09-06T20:41:05.146Z,3.33
2023-09-06T20:43:51.309Z,3.17
2023-09-06T20:46:37.183Z,3.28
2023-09-06T20:49:24.165Z,3.45
2023-09-06T20:52:09.929Z,3.20
2023-09-06T20:54:55.777Z,3.28
2023-09-06T20:57:41.109Z,3.08
2023-09-06T21:00:26.509Z,3.20
2023-09-06T21:03:12.069Z,3.20
2023-09-06T21:05:58.652Z,3.25
2023-09-06T21:08:44.563Z,3.45
2023-09-06T21:11:30.343Z,3.20
2023-09-06T21:14:18.066Z,3.33
2023-09-06T21:17:05.623Z,3.53
2023-09-06T21:19:50.979Z,3.30
2023-09-06T21:22:36.411Z,3.35
2023-09-06T21:25:21.633Z,3.10
2023-09-06T21:28:07.646Z,3.20
2023-09-06T21:30:53.124Z,3.10
2023-09-06T21:33:38.546Z,3.22
2023-09-06T21:36:24.312Z,3.53
2023-09-06T21:39:09.928Z,3.20
2023-09-06T21:41:55.108Z,3.40
2023-09-06T21:44:40.505Z,3.25
2023-09-06T21:47:25.958Z,3.30
2023-09-06T21:50:11.369Z,3.50
2023-09-06T21:52:56.575Z,3.58
2023-09-06T21:55:42.196Z,3.30
2023-09-06T21:58:28.129Z,3.38
2023-09-06T22:01:32.357Z,3.20
2023-09-06T22:04:36.353Z,3.55
2023-09-06T22:07:40.664Z,3.72
2023-09-06T22:10:45.366Z,3.55
2023-09-06T22:13:49.491Z,3.58
2023-09-06T22:16:34.810Z,4.10
2023-09-06T22:19:22.381Z,3.72
2023-09-06T22:22:08.035Z,3.80
2023-09-06T22:24:53.714Z,3.80
2023-09-06T22:27:39.124Z,3.40
2023-09-06T22:30:24.882Z,3.60
2023-09-06T22:33:10.139Z,3.65
2023-09-06T22:35:55.628Z,3.88
2023-09-06T22:38:40.982Z,3.70
2023-09-06T22:41:26.793Z,3.70
2023-09-06T22:44:12.288Z,3.90
2023-09-06T22:46:57.767Z,4.10
2023-09-06T22:49:43.389Z,4.15
2023-09-06T22:52:29.033Z,4.50
2023-09-06T22:55:14.486Z,4.07
2023-09-06T22:57:59.870Z,4.03
2023-09-06T23:00:45.659Z,4.40
2023-09-06T23:03:31.449Z,4.53
2023-09-06T23:06:17.747Z,4.47
2023-09-06T23:09:03.512Z,4.50
2023-09-06T23:11:50.493Z,4.32
2023-09-06T23:14:35.813Z,4.20
2023-09-06T23:17:21.519Z,4.05
2023-09-06T23:20:07.875Z,4.28
2023-09-06T23:22:54.415Z,4.43
2023-09-06T23:25:40.014Z,4.47
2023-09-06T23:28:25.179Z,4.40
2023-09-06T23:31:11.166Z,4.40
2023-09-06T23:33:56.932Z,4.70
2023-09-06T23:36:42.351Z,4.63
2023-09-06T23:39:27.847Z,4.30
2023-09-06T23:42:13.247Z,4.28
2023-09-06T23:44:58.843Z,4.95
2023-09-06T23:47:44.366Z,5.10
2023-09-06T23:50:29.781Z,4.68
2023-09-06T23:53:15.115Z,4.90
2023-09-06T23:56:04.076Z,4.68
2023-09-06T23:58:49.947Z,4.78
